sensor_id;sensor_type;location;lat;lon;timestamp;temperature;humidity
11214;DHT22;5664;48.606;13.456;2022-11-20T00:00:28;19.60;79.20
11214;DHT22;5664;48.606;13.456;2022-11-20T00:02:53;19.60;79.20
11214;DHT22;5664;48.606;13.456;2022-11-20T00:05:19;19.60;79.20
11214;DHT22;5664;48.606;13.456;2022-11-20T00:07:46;19.60;79.20
11214;DHT22;5664;48.606;13.456;2022-11-20T00:10:11;19.60;79.20
11214;DHT22;5664;48.606;13.456;2022-11-20T00:12:36;19.60;79.20
11214;DHT22;5664;48.606;13.456;2022-11-20T00:15:02;19.60;79.20
11214;DHT22;5664;48.606;13.456;2022-11-20T00:17:28;19.60;79.20
11214;DHT22;5664;48.606;13.456;2022-11-20T00:19:53;19.60;79.20
11214;DHT22;5664;48.606;13.456;2022-11-20T00:22:19;19.50;79.20
11214;DHT22;5664;48.606;13.456;2022-11-20T00:24:44;19.60;79.30
11214;DHT22;5664;48.606;13.456;2022-11-20T00:27:09;19.60;79.30
11214;DHT22;5664;48.606;13.456;2022-11-20T00:29:35;19.50;79.30
11214;DHT22;5664;48.606;13.456;2022-11-20T00:32:00;19.50;79.20
11214;DHT22;5664;48.606;13.456;2022-11-20T00:34:26;19.50;79.20
11214;DHT22;5664;48.606;13.456;2022-11-20T00:36:51;19.50;79.20
11214;DHT22;5664;48.606;13.456;2022-11-20T00:39:17;19.50;79.20
11214;DHT22;5664;48.606;13.456;2022-11-20T00:41:42;19.50;79.20
11214;DHT22;5664;48.606;13.456;2022-11-20T00:44:08;19.50;79.20
11214;DHT22;5664;48.606;13.456;2022-11-20T00:46:33;19.50;79.20
11214;DHT22;5664;48.606;13.456;2022-11-20T00:48:59;19.50;79.30
11214;DHT22;5664;48.606;13.456;2022-11-20T00:51:25;19.50;79.30
11214;DHT22;5664;48.606;13.456;2022-11-20T00:53:51;19.50;79.30
11214;DHT22;5664;48.606;13.456;2022-11-20T00:56:17;19.50;79.40
11214;DHT22;5664;48.606;13.456;2022-11-20T00:58:43;19.50;79.40
11214;DHT22;5664;48.606;13.456;2022-11-20T01:01:10;19.50;79.30
11214;DHT22;5664;48.606;13.456;2022-11-20T01:03:36;19.50;79.40
11214;DHT22;5664;48.606;13.456;2022-11-20T01:06:03;19.50;79.40
11214;DHT22;5664;48.606;13.456;2022-11-20T01:08:30;19.50;79.30
11214;DHT22;5664;48.606;13.456;2022-11-20T01:11:02;19.50;79.40
11214;DHT22;5664;48.606;13.456;2022-11-20T01:13:28;19.50;79.40
11214;DHT22;5664;48.606;13.456;2022-11-20T01:16:13;19.50;79.40
11214;DHT22;5664;48.606;13.456;2022-11-20T01:18:40;19.50;79.40
11214;DHT22;5664;48.606;13.456;2022-11-20T01:21:06;19.40;79.50
11214;DHT22;5664;48.606;13.456;2022-11-20T01:23:33;19.40;79.40
11214;DHT22;5664;48.606;13.456;2022-11-20T01:26:06;19.40;79.40
11214;DHT22;5664;48.606;13.456;2022-11-20T01:28:32;19.40;79.40
11214;DHT22;5664;48.606;13.456;2022-11-20T01:30:58;19.50;79.50
11214;DHT22;5664;48.606;13.456;2022-11-20T01:33:23;19.40;79.50
11214;DHT22;5664;48.606;13.456;2022-11-20T01:35:49;19.40;79.50
11214;DHT22;5664;48.606;13.456;2022-11-20T01:38:15;19.40;79.50
11214;DHT22;5664;48.606;13.456;2022-11-20T01:40:40;19.40;79.50
11214;DHT22;5664;48.606;13.456;2022-11-20T01:43:10;19.40;79.50
11214;DHT22;5664;48.606;13.456;2022-11-20T01:45:50;19.40;79.50
11214;DHT22;5664;48.606;13.456;2022-11-20T01:48:18;19.40;79.50
11214;DHT22;5664;48.606;13.456;2022-11-20T01:50:44;19.40;79.60
11214;DHT22;5664;48.606;13.456;2022-11-20T01:53:11;19.40;79.50
11214;DHT22;5664;48.606;13.456;2022-11-20T01:55:43;19.40;79.60
11214;DHT22;5664;48.606;13.456;2022-11-20T01:58:10;19.40;79.60
11214;DHT22;5664;48.606;13.456;2022-11-20T02:00:36;19.40;79.60
11214;DHT22;5664;48.606;13.456;2022-11-20T02:03:06;19.40;79.60
11214;DHT22;5664;48.606;13.456;2022-11-20T02:05:36;19.40;79.60
11214;DHT22;5664;48.606;13.456;2022-11-20T02:08:04;19.30;79.50
11214;DHT22;5664;48.606;13.456;2022-11-20T02:10:31;19.40;79.70
11214;DHT22;5664;48.606;13.456;2022-11-20T02:12:57;19.40;79.60
11214;DHT22;5664;48.606;13.456;2022-11-20T02:15:41;19.30;79.60
11214;DHT22;5664;48.606;13.456;2022-11-20T02:18:07;19.30;79.60
11214;DHT22;5664;48.606;13.456;2022-11-20T02:20:33;19.40;79.70
11214;DHT22;5664;48.606;13.456;2022-11-20T02:23:00;19.30;79.60
11214;DHT22;5664;48.606;13.456;2022-11-20T02:25:27;19.30;79.60
11214;DHT22;5664;48.606;13.456;2022-11-20T02:27:54;19.30;79.60
11214;DHT22;5664;48.606;13.456;2022-11-20T02:30:19;19.30;79.60
11214;DHT22;5664;48.606;13.456;2022-11-20T02:32:45;19.30;79.60
11214;DHT22;5664;48.606;13.456;2022-11-20T02:37:47;19.30;79.70
11214;DHT22;5664;48.606;13.456;2022-11-20T02:40:13;19.30;79.70
11214;DHT22;5664;48.606;13.456;2022-11-20T02:42:38;19.40;79.80
11214;DHT22;5664;48.606;13.456;2022-11-20T02:45:04;19.30;79.60
11214;DHT22;5664;48.606;13.456;2022-11-20T02:47:30;19.30;79.70
11214;DHT22;5664;48.606;13.456;2022-11-20T02:49:56;19.30;79.70
11214;DHT22;5664;48.606;13.456;2022-11-20T02:52:21;19.30;79.70
11214;DHT22;5664;48.606;13.456;2022-11-20T02:54:47;19.30;79.70
11214;DHT22;5664;48.606;13.456;2022-11-20T02:57:12;19.30;79.70
11214;DHT22;5664;48.606;13.456;2022-11-20T02:59:38;19.30;79.70
11214;DHT22;5664;48.606;13.456;2022-11-20T03:02:03;19.30;79.70
11214;DHT22;5664;48.606;13.456;2022-11-20T03:04:30;19.30;79.70
11214;DHT22;5664;48.606;13.456;2022-11-20T03:06:55;19.30;79.70
11214;DHT22;5664;48.606;13.456;2022-11-20T03:09:21;19.30;79.70
11214;DHT22;5664;48.606;13.456;2022-11-20T03:11:46;19.30;79.70
11214;DHT22;5664;48.606;13.456;2022-11-20T03:14:12;19.30;79.80
11214;DHT22;5664;48.606;13.456;2022-11-20T03:16:37;19.30;79.80
11214;DHT22;5664;48.606;13.456;2022-11-20T03:19:03;19.30;79.80
11214;DHT22;5664;48.606;13.456;2022-11-20T03:21:28;19.30;79.80
11214;DHT22;5664;48.606;13.456;2022-11-20T03:23:54;19.30;79.70
11214;DHT22;5664;48.606;13.456;2022-11-20T03:26:23;19.30;79.70
11214;DHT22;5664;48.606;13.456;2022-11-20T03:28:50;19.30;79.80
11214;DHT22;5664;48.606;13.456;2022-11-20T03:31:17;19.30;79.80
11214;DHT22;5664;48.606;13.456;2022-11-20T03:33:42;19.20;79.70
11214;DHT22;5664;48.606;13.456;2022-11-20T03:36:09;19.20;80.50
11214;DHT22;5664;48.606;13.456;2022-11-20T03:38:36;19.20;79.70
11214;DHT22;5664;48.606;13.456;2022-11-20T03:41:02;19.30;79.70
11214;DHT22;5664;48.606;13.456;2022-11-20T03:43:28;19.20;79.70
11214;DHT22;5664;48.606;13.456;2022-11-20T03:45:53;19.20;79.80
11214;DHT22;5664;48.606;13.456;2022-11-20T03:48:19;19.20;79.80
11214;DHT22;5664;48.606;13.456;2022-11-20T03:50:44;19.20;79.80
11214;DHT22;5664;48.606;13.456;2022-11-20T03:53:13;19.20;79.80
11214;DHT22;5664;48.606;13.456;2022-11-20T03:55:38;19.20;79.80
11214;DHT22;5664;48.606;13.456;2022-11-20T03:58:04;19.20;79.80
11214;DHT22;5664;48.606;13.456;2022-11-20T04:00:29;19.20;79.80
11214;DHT22;5664;48.606;13.456;2022-11-20T04:02:57;19.30;79.80
11214;DHT22;5664;48.606;13.456;2022-11-20T04:05:23;19.20;79.80
11214;DHT22;5664;48.606;13.456;2022-11-20T04:07:48;19.20;79.80
11214;DHT22;5664;48.606;13.456;2022-11-20T04:10:14;19.20;79.70
11214;DHT22;5664;48.606;13.456;2022-11-20T04:12:39;19.20;79.80
11214;DHT22;5664;48.606;13.456;2022-11-20T04:15:05;19.20;79.80
11214;DHT22;5664;48.606;13.456;2022-11-20T04:17:30;19.20;79.80
11214;DHT22;5664;48.606;13.456;2022-11-20T04:19:56;19.20;79.80
11214;DHT22;5664;48.606;13.456;2022-11-20T04:22:21;19.20;79.80
11214;DHT22;5664;48.606;13.456;2022-11-20T04:24:46;19.20;79.80
11214;DHT22;5664;48.606;13.456;2022-11-20T04:27:12;19.20;79.90
11214;DHT22;5664;48.606;13.456;2022-11-20T04:29:37;19.20;79.90
11214;DHT22;5664;48.606;13.456;2022-11-20T04:32:03;19.20;79.90
11214;DHT22;5664;48.606;13.456;2022-11-20T04:34:28;19.20;79.90
11214;DHT22;5664;48.606;13.456;2022-11-20T04:36:54;19.10;79.90
11214;DHT22;5664;48.606;13.456;2022-11-20T04:39:19;19.20;79.90
11214;DHT22;5664;48.606;13.456;2022-11-20T04:41:45;19.20;79.90
11214;DHT22;5664;48.606;13.456;2022-11-20T04:44:10;19.20;79.90
11214;DHT22;5664;48.606;13.456;2022-11-20T04:46:37;19.10;79.80
11214;DHT22;5664;48.606;13.456;2022-11-20T04:49:03;19.20;79.90
11214;DHT22;5664;48.606;13.456;2022-11-20T04:51:29;19.10;79.90
11214;DHT22;5664;48.606;13.456;2022-11-20T04:53:55;19.10;79.90
11214;DHT22;5664;48.606;13.456;2022-11-20T04:56:20;19.10;79.90
11214;DHT22;5664;48.606;13.456;2022-11-20T04:58:46;19.10;79.90
11214;DHT22;5664;48.606;13.456;2022-11-20T05:01:12;19.10;79.90
11214;DHT22;5664;48.606;13.456;2022-11-20T05:03:41;19.10;79.90
11214;DHT22;5664;48.606;13.456;2022-11-20T05:06:07;19.10;80.00
11214;DHT22;5664;48.606;13.456;2022-11-20T05:08:33;19.10;79.90
11214;DHT22;5664;48.606;13.456;2022-11-20T05:11:02;19.10;80.00
11214;DHT22;5664;48.606;13.456;2022-11-20T05:13:28;19.10;80.00
11214;DHT22;5664;48.606;13.456;2022-11-20T05:15:53;19.10;79.90
11214;DHT22;5664;48.606;13.456;2022-11-20T05:18:19;19.10;80.00
11214;DHT22;5664;48.606;13.456;2022-11-20T05:20:44;19.10;80.00
11214;DHT22;5664;48.606;13.456;2022-11-20T05:23:10;19.10;79.90
11214;DHT22;5664;48.606;13.456;2022-11-20T05:25:35;19.10;80.00
11214;DHT22;5664;48.606;13.456;2022-11-20T05:28:01;19.10;80.00
11214;DHT22;5664;48.606;13.456;2022-11-20T05:30:26;19.10;80.00
11214;DHT22;5664;48.606;13.456;2022-11-20T05:32:51;19.10;80.00
11214;DHT22;5664;48.606;13.456;2022-11-20T05:35:17;19.10;80.00
11214;DHT22;5664;48.606;13.456;2022-11-20T05:37:42;19.10;80.00
11214;DHT22;5664;48.606;13.456;2022-11-20T05:40:08;19.10;80.00
11214;DHT22;5664;48.606;13.456;2022-11-20T05:42:34;19.10;80.10
11214;DHT22;5664;48.606;13.456;2022-11-20T05:45:01;19.10;80.00
11214;DHT22;5664;48.606;13.456;2022-11-20T05:47:28;19.10;80.80
11214;DHT22;5664;48.606;13.456;2022-11-20T05:49:54;19.10;80.00
11214;DHT22;5664;48.606;13.456;2022-11-20T05:52:19;19.10;80.00
11214;DHT22;5664;48.606;13.456;2022-11-20T05:54:45;19.10;80.00
11214;DHT22;5664;48.606;13.456;2022-11-20T05:57:10;19.10;80.10
11214;DHT22;5664;48.606;13.456;2022-11-20T05:59:36;19.10;80.10
11214;DHT22;5664;48.606;13.456;2022-11-20T06:02:01;19.00;80.40
11214;DHT22;5664;48.606;13.456;2022-11-20T06:04:27;19.00;80.00
11214;DHT22;5664;48.606;13.456;2022-11-20T06:06:52;19.00;80.10
11214;DHT22;5664;48.606;13.456;2022-11-20T06:09:18;19.00;80.00
11214;DHT22;5664;48.606;13.456;2022-11-20T06:11:43;19.00;80.00
11214;DHT22;5664;48.606;13.456;2022-11-20T06:14:08;19.00;80.00
11214;DHT22;5664;48.606;13.456;2022-11-20T06:16:34;19.00;80.10
11214;DHT22;5664;48.606;13.456;2022-11-20T06:18:59;19.00;80.10
11214;DHT22;5664;48.606;13.456;2022-11-20T06:21:25;19.00;80.00
11214;DHT22;5664;48.606;13.456;2022-11-20T06:23:51;19.00;80.80
11214;DHT22;5664;48.606;13.456;2022-11-20T06:26:18;19.00;80.10
11214;DHT22;5664;48.606;13.456;2022-11-20T06:28:44;19.00;80.10
11214;DHT22;5664;48.606;13.456;2022-11-20T06:31:11;19.00;80.10
11214;DHT22;5664;48.606;13.456;2022-11-20T06:33:36;19.00;80.10
11214;DHT22;5664;48.606;13.456;2022-11-20T06:36:02;19.00;80.10
11214;DHT22;5664;48.606;13.456;2022-11-20T06:38:28;19.00;80.10
11214;DHT22;5664;48.606;13.456;2022-11-20T06:40:54;19.00;80.10
11214;DHT22;5664;48.606;13.456;2022-11-20T06:43:21;19.00;80.10
11214;DHT22;5664;48.606;13.456;2022-11-20T06:45:50;19.00;80.10
11214;DHT22;5664;48.606;13.456;2022-11-20T06:48:16;19.00;80.10
11214;DHT22;5664;48.606;13.456;2022-11-20T06:50:41;19.00;80.10
11214;DHT22;5664;48.606;13.456;2022-11-20T06:53:07;19.00;80.10
11214;DHT22;5664;48.606;13.456;2022-11-20T06:55:32;19.00;80.10
11214;DHT22;5664;48.606;13.456;2022-11-20T06:57:58;19.00;80.10
11214;DHT22;5664;48.606;13.456;2022-11-20T07:00:23;19.00;80.20
11214;DHT22;5664;48.606;13.456;2022-11-20T07:02:48;19.00;80.10
11214;DHT22;5664;48.606;13.456;2022-11-20T07:05:15;18.90;80.10
11214;DHT22;5664;48.606;13.456;2022-11-20T07:07:40;18.90;80.10
11214;DHT22;5664;48.606;13.456;2022-11-20T07:10:06;19.00;80.10
11214;DHT22;5664;48.606;13.456;2022-11-20T07:12:31;18.90;80.10
11214;DHT22;5664;48.606;13.456;2022-11-20T07:14:57;19.00;80.20
11214;DHT22;5664;48.606;13.456;2022-11-20T07:17:23;19.00;80.20
11214;DHT22;5664;48.606;13.456;2022-11-20T07:19:48;18.90;80.20
11214;DHT22;5664;48.606;13.456;2022-11-20T07:22:13;18.90;80.10
11214;DHT22;5664;48.606;13.456;2022-11-20T07:24:39;18.90;80.10
11214;DHT22;5664;48.606;13.456;2022-11-20T07:27:04;18.90;80.10
11214;DHT22;5664;48.606;13.456;2022-11-20T07:29:30;18.90;80.10
11214;DHT22;5664;48.606;13.456;2022-11-20T07:31:56;18.90;80.20
11214;DHT22;5664;48.606;13.456;2022-11-20T07:34:22;18.90;80.20
11214;DHT22;5664;48.606;13.456;2022-11-20T07:36:47;18.90;80.20
11214;DHT22;5664;48.606;13.456;2022-11-20T07:39:13;18.90;80.20
11214;DHT22;5664;48.606;13.456;2022-11-20T07:41:38;18.90;80.20
11214;DHT22;5664;48.606;13.456;2022-11-20T07:44:04;18.90;80.20
11214;DHT22;5664;48.606;13.456;2022-11-20T07:46:29;18.90;80.30
11214;DHT22;5664;48.606;13.456;2022-11-20T07:48:54;18.90;80.30
11214;DHT22;5664;48.606;13.456;2022-11-20T07:51:20;18.90;80.30
11214;DHT22;5664;48.606;13.456;2022-11-20T07:53:45;18.90;80.30
11214;DHT22;5664;48.606;13.456;2022-11-20T07:56:11;18.90;80.40
11214;DHT22;5664;48.606;13.456;2022-11-20T07:58:36;18.90;80.50
11214;DHT22;5664;48.606;13.456;2022-11-20T08:01:05;19.00;80.40
11214;DHT22;5664;48.606;13.456;2022-11-20T08:03:31;19.20;79.90
11214;DHT22;5664;48.606;13.456;2022-11-20T08:06:00;19.60;79.20
11214;DHT22;5664;48.606;13.456;2022-11-20T08:08:28;20.20;77.30
11214;DHT22;5664;48.606;13.456;2022-11-20T08:10:54;21.10;74.10
11214;DHT22;5664;48.606;13.456;2022-11-20T08:13:41;22.00;70.20
11214;DHT22;5664;48.606;13.456;2022-11-20T08:16:25;23.10;65.60
11214;DHT22;5664;48.606;13.456;2022-11-20T08:18:51;24.10;61.50
11214;DHT22;5664;48.606;13.456;2022-11-20T08:21:16;24.90;58.80
11214;DHT22;5664;48.606;13.456;2022-11-20T08:23:41;25.50;56.90
11214;DHT22;5664;48.606;13.456;2022-11-20T08:26:07;26.10;55.30
11214;DHT22;5664;48.606;13.456;2022-11-20T08:28:32;26.60;54.00
11214;DHT22;5664;48.606;13.456;2022-11-20T08:30:58;27.00;52.80
11214;DHT22;5664;48.606;13.456;2022-11-20T08:33:24;27.30;51.90
11214;DHT22;5664;48.606;13.456;2022-11-20T08:35:49;27.60;51.10
11214;DHT22;5664;48.606;13.456;2022-11-20T08:38:15;27.80;50.50
11214;DHT22;5664;48.606;13.456;2022-11-20T08:40:40;28.00;50.00
11214;DHT22;5664;48.606;13.456;2022-11-20T08:43:06;28.10;49.60
11214;DHT22;5664;48.606;13.456;2022-11-20T08:45:31;28.20;49.20
11214;DHT22;5664;48.606;13.456;2022-11-20T08:47:59;28.40;49.00
11214;DHT22;5664;48.606;13.456;2022-11-20T08:50:25;28.40;48.70
11214;DHT22;5664;48.606;13.456;2022-11-20T08:52:50;28.50;48.50
11214;DHT22;5664;48.606;13.456;2022-11-20T08:55:15;28.50;48.30
11214;DHT22;5664;48.606;13.456;2022-11-20T08:57:41;28.60;48.20
11214;DHT22;5664;48.606;13.456;2022-11-20T09:00:07;28.60;48.00
11214;DHT22;5664;48.606;13.456;2022-11-20T09:02:34;28.70;47.90
11214;DHT22;5664;48.606;13.456;2022-11-20T09:04:59;28.70;47.70
11214;DHT22;5664;48.606;13.456;2022-11-20T09:07:27;28.70;47.60
11214;DHT22;5664;48.606;13.456;2022-11-20T09:09:53;28.70;47.50
11214;DHT22;5664;48.606;13.456;2022-11-20T09:12:19;28.70;47.40
11214;DHT22;5664;48.606;13.456;2022-11-20T09:14:44;28.70;47.40
11214;DHT22;5664;48.606;13.456;2022-11-20T09:17:10;28.60;47.40
11214;DHT22;5664;48.606;13.456;2022-11-20T09:19:39;28.60;47.50
11214;DHT22;5664;48.606;13.456;2022-11-20T09:22:05;28.50;47.60
11214;DHT22;5664;48.606;13.456;2022-11-20T09:24:30;28.40;47.80
11214;DHT22;5664;48.606;13.456;2022-11-20T09:26:56;28.30;47.90
11214;DHT22;5664;48.606;13.456;2022-11-20T09:29:21;28.20;48.10
11214;DHT22;5664;48.606;13.456;2022-11-20T09:31:47;28.00;48.30
11214;DHT22;5664;48.606;13.456;2022-11-20T09:34:12;27.90;48.50
11214;DHT22;5664;48.606;13.456;2022-11-20T09:36:37;27.80;48.70
11214;DHT22;5664;48.606;13.456;2022-11-20T09:39:03;27.60;48.90
11214;DHT22;5664;48.606;13.456;2022-11-20T09:43:58;27.40;49.40
11214;DHT22;5664;48.606;13.456;2022-11-20T09:46:34;27.30;49.50
11214;DHT22;5664;48.606;13.456;2022-11-20T09:51:57;27.10;49.90
11214;DHT22;5664;48.606;13.456;2022-11-20T09:54:33;27.00;50.10
11214;DHT22;5664;48.606;13.456;2022-11-20T09:57:00;26.90;50.30
11214;DHT22;5664;48.606;13.456;2022-11-20T09:59:34;26.80;50.50
11214;DHT22;5664;48.606;13.456;2022-11-20T10:02:00;26.80;50.70
11214;DHT22;5664;48.606;13.456;2022-11-20T10:04:27;26.70;50.70
11214;DHT22;5664;48.606;13.456;2022-11-20T10:07:04;26.70;50.90
11214;DHT22;5664;48.606;13.456;2022-11-20T10:09:33;26.60;51.00
11214;DHT22;5664;48.606;13.456;2022-11-20T10:14:32;26.50;51.20
11214;DHT22;5664;48.606;13.456;2022-11-20T10:24:56;26.30;51.60
11214;DHT22;5664;48.606;13.456;2022-11-20T10:27:27;26.30;51.60
11214;DHT22;5664;48.606;13.456;2022-11-20T10:30:01;26.30;51.70
11214;DHT22;5664;48.606;13.456;2022-11-20T10:32:36;26.30;51.70
11214;DHT22;5664;48.606;13.456;2022-11-20T10:37:31;26.20;51.70
11214;DHT22;5664;48.606;13.456;2022-11-20T10:42:45;26.20;52.40
11214;DHT22;5664;48.606;13.456;2022-11-20T10:47:49;26.20;51.80
11214;DHT22;5664;48.606;13.456;2022-11-20T10:50:16;26.20;51.90
11214;DHT22;5664;48.606;13.456;2022-11-20T10:52:55;26.20;51.90
11214;DHT22;5664;48.606;13.456;2022-11-20T10:58:11;26.20;51.90
11214;DHT22;5664;48.606;13.456;2022-11-20T11:00:38;26.20;51.90
11214;DHT22;5664;48.606;13.456;2022-11-20T11:03:07;26.20;51.80
11214;DHT22;5664;48.606;13.456;2022-11-20T11:05:44;26.20;51.90
11214;DHT22;5664;48.606;13.456;2022-11-20T11:08:14;26.20;51.80
11214;DHT22;5664;48.606;13.456;2022-11-20T11:13:19;26.20;51.80
11214;DHT22;5664;48.606;13.456;2022-11-20T11:15:45;26.20;51.90
11214;DHT22;5664;48.606;13.456;2022-11-20T11:18:10;26.20;52.00
11214;DHT22;5664;48.606;13.456;2022-11-20T11:20:36;26.20;51.90
11214;DHT22;5664;48.606;13.456;2022-11-20T11:23:02;26.20;52.00
11214;DHT22;5664;48.606;13.456;2022-11-20T11:27:54;26.20;52.00
11214;DHT22;5664;48.606;13.456;2022-11-20T11:30:21;26.20;51.90
11214;DHT22;5664;48.606;13.456;2022-11-20T11:32:47;26.20;51.90
11214;DHT22;5664;48.606;13.456;2022-11-20T11:35:24;26.20;51.90
11214;DHT22;5664;48.606;13.456;2022-11-20T11:37:50;26.20;51.90
11214;DHT22;5664;48.606;13.456;2022-11-20T11:40:17;26.10;51.90
11214;DHT22;5664;48.606;13.456;2022-11-20T11:42:43;26.10;52.00
11214;DHT22;5664;48.606;13.456;2022-11-20T11:45:14;26.10;52.00
11214;DHT22;5664;48.606;13.456;2022-11-20T11:52:35;26.10;52.10
11214;DHT22;5664;48.606;13.456;2022-11-20T11:55:03;26.10;52.10
11214;DHT22;5664;48.606;13.456;2022-11-20T11:57:32;26.10;52.10
11214;DHT22;5664;48.606;13.456;2022-11-20T12:00:12;26.10;52.20
11214;DHT22;5664;48.606;13.456;2022-11-20T12:07:47;26.00;52.20
11214;DHT22;5664;48.606;13.456;2022-11-20T12:10:21;26.00;52.20
11214;DHT22;5664;48.606;13.456;2022-11-20T12:12:50;26.00;52.20
11214;DHT22;5664;48.606;13.456;2022-11-20T12:15:23;26.00;52.30
11214;DHT22;5664;48.606;13.456;2022-11-20T12:17:50;26.00;52.30
11214;DHT22;5664;48.606;13.456;2022-11-20T12:20:16;26.00;52.30
11214;DHT22;5664;48.606;13.456;2022-11-20T12:25:30;26.00;52.30
11214;DHT22;5664;48.606;13.456;2022-11-20T12:28:10;26.00;52.30
11214;DHT22;5664;48.606;13.456;2022-11-20T12:33:40;25.90;52.40
11214;DHT22;5664;48.606;13.456;2022-11-20T12:38:58;25.90;52.40
11214;DHT22;5664;48.606;13.456;2022-11-20T12:41:50;25.90;52.50
11214;DHT22;5664;48.606;13.456;2022-11-20T12:50:08;25.80;52.50
11214;DHT22;5664;48.606;13.456;2022-11-20T12:57:36;25.80;52.60
11214;DHT22;5664;48.606;13.456;2022-11-20T13:00:22;25.80;52.70
11214;DHT22;5664;48.606;13.456;2022-11-20T13:08:36;25.70;52.70
11214;DHT22;5664;48.606;13.456;2022-11-20T13:11:36;25.70;52.70
11214;DHT22;5664;48.606;13.456;2022-11-20T13:16:33;25.70;52.70
11214;DHT22;5664;48.606;13.456;2022-11-20T13:19:03;25.80;52.80
11214;DHT22;5664;48.606;13.456;2022-11-20T13:21:39;25.80;52.70
11214;DHT22;5664;48.606;13.456;2022-11-20T13:27:02;25.70;52.60
11214;DHT22;5664;48.606;13.456;2022-11-20T13:29:28;25.80;52.60
11214;DHT22;5664;48.606;13.456;2022-11-20T13:32:02;25.80;52.60
11214;DHT22;5664;48.606;13.456;2022-11-20T13:34:27;25.80;52.60
11214;DHT22;5664;48.606;13.456;2022-11-20T13:36:54;25.80;52.60
11214;DHT22;5664;48.606;13.456;2022-11-20T13:39:23;25.80;52.60
11214;DHT22;5664;48.606;13.456;2022-11-20T13:41:53;25.80;52.60
11214;DHT22;5664;48.606;13.456;2022-11-20T13:44:31;25.80;52.50
11214;DHT22;5664;48.606;13.456;2022-11-20T13:47:00;25.80;52.50
11214;DHT22;5664;48.606;13.456;2022-11-20T13:49:27;25.80;52.40
11214;DHT22;5664;48.606;13.456;2022-11-20T13:51:58;25.90;52.30
11214;DHT22;5664;48.606;13.456;2022-11-20T14:00:08;26.10;51.70
11214;DHT22;5664;48.606;13.456;2022-11-20T14:02:35;26.10;51.50
11214;DHT22;5664;48.606;13.456;2022-11-20T14:05:01;26.20;51.30
11214;DHT22;5664;48.606;13.456;2022-11-20T14:07:31;26.20;51.20
11214;DHT22;5664;48.606;13.456;2022-11-20T14:09:58;26.30;51.10
11214;DHT22;5664;48.606;13.456;2022-11-20T14:12:27;26.30;51.00
11214;DHT22;5664;48.606;13.456;2022-11-20T14:14:53;26.40;50.90
11214;DHT22;5664;48.606;13.456;2022-11-20T14:17:20;26.40;50.80
11214;DHT22;5664;48.606;13.456;2022-11-20T14:19:47;26.50;50.70
11214;DHT22;5664;48.606;13.456;2022-11-20T14:22:20;26.50;51.20
11214;DHT22;5664;48.606;13.456;2022-11-20T14:24:47;26.50;50.60
11214;DHT22;5664;48.606;13.456;2022-11-20T14:27:13;26.40;50.60
11214;DHT22;5664;48.606;13.456;2022-11-20T14:29:39;26.30;50.70
11214;DHT22;5664;48.606;13.456;2022-11-20T14:32:08;26.30;50.80
11214;DHT22;5664;48.606;13.456;2022-11-20T14:34:36;26.10;51.10
11214;DHT22;5664;48.606;13.456;2022-11-20T14:37:06;26.00;51.40
11214;DHT22;5664;48.606;13.456;2022-11-20T14:39:36;25.80;51.70
11214;DHT22;5664;48.606;13.456;2022-11-20T14:42:15;25.60;52.00
11214;DHT22;5664;48.606;13.456;2022-11-20T14:44:40;25.50;52.30
11214;DHT22;5664;48.606;13.456;2022-11-20T14:47:08;25.30;52.70
11214;DHT22;5664;48.606;13.456;2022-11-20T14:49:35;25.10;53.10
11214;DHT22;5664;48.606;13.456;2022-11-20T14:52:18;25.00;53.50
11214;DHT22;5664;48.606;13.456;2022-11-20T14:54:50;24.80;53.90
11214;DHT22;5664;48.606;13.456;2022-11-20T14:57:23;24.60;54.40
11214;DHT22;5664;48.606;13.456;2022-11-20T14:59:49;24.40;54.80
11214;DHT22;5664;48.606;13.456;2022-11-20T15:02:15;24.20;55.20
11214;DHT22;5664;48.606;13.456;2022-11-20T15:04:44;24.10;55.60
11214;DHT22;5664;48.606;13.456;2022-11-20T15:07:09;23.90;55.90
11214;DHT22;5664;48.606;13.456;2022-11-20T15:09:35;23.80;56.30
11214;DHT22;5664;48.606;13.456;2022-11-20T15:12:01;23.60;56.60
11214;DHT22;5664;48.606;13.456;2022-11-20T15:14:27;23.50;56.90
11214;DHT22;5664;48.606;13.456;2022-11-20T15:16:54;23.40;57.30
11214;DHT22;5664;48.606;13.456;2022-11-20T15:19:20;23.30;57.60
11214;DHT22;5664;48.606;13.456;2022-11-20T15:21:46;23.10;57.90
11214;DHT22;5664;48.606;13.456;2022-11-20T15:24:11;23.10;58.20
11214;DHT22;5664;48.606;13.456;2022-11-20T15:26:37;23.00;58.50
11214;DHT22;5664;48.606;13.456;2022-11-20T15:29:04;22.90;58.70
11214;DHT22;5664;48.606;13.456;2022-11-20T15:31:29;22.80;58.90
11214;DHT22;5664;48.606;13.456;2022-11-20T15:33:55;22.80;59.10
11214;DHT22;5664;48.606;13.456;2022-11-20T15:36:20;22.70;59.30
11214;DHT22;5664;48.606;13.456;2022-11-20T15:38:46;22.70;59.50
11214;DHT22;5664;48.606;13.456;2022-11-20T15:41:11;22.60;59.70
11214;DHT22;5664;48.606;13.456;2022-11-20T15:43:37;22.50;59.90
11214;DHT22;5664;48.606;13.456;2022-11-20T15:46:03;22.50;60.00
11214;DHT22;5664;48.606;13.456;2022-11-20T15:48:31;22.50;60.20
11214;DHT22;5664;48.606;13.456;2022-11-20T15:53:40;22.40;60.50
11214;DHT22;5664;48.606;13.456;2022-11-20T15:56:05;22.40;60.70
11214;DHT22;5664;48.606;13.456;2022-11-20T15:58:31;22.30;60.80
11214;DHT22;5664;48.606;13.456;2022-11-20T16:00:56;22.30;60.90
11214;DHT22;5664;48.606;13.456;2022-11-20T16:03:22;22.30;61.00
11214;DHT22;5664;48.606;13.456;2022-11-20T16:05:48;22.30;61.00
11214;DHT22;5664;48.606;13.456;2022-11-20T16:08:13;22.30;61.10
11214;DHT22;5664;48.606;13.456;2022-11-20T16:10:39;22.30;61.20
11214;DHT22;5664;48.606;13.456;2022-11-20T16:13:05;22.30;61.30
11214;DHT22;5664;48.606;13.456;2022-11-20T16:15:55;22.30;61.40
11214;DHT22;5664;48.606;13.456;2022-11-20T16:18:23;22.20;61.40
11214;DHT22;5664;48.606;13.456;2022-11-20T16:20:50;22.20;61.50
11214;DHT22;5664;48.606;13.456;2022-11-20T16:23:16;22.20;61.60
11214;DHT22;5664;48.606;13.456;2022-11-20T16:25:42;22.20;61.60
11214;DHT22;5664;48.606;13.456;2022-11-20T16:28:08;22.20;61.70
11214;DHT22;5664;48.606;13.456;2022-11-20T16:30:33;22.20;61.80
11214;DHT22;5664;48.606;13.456;2022-11-20T16:33:00;22.20;61.80
11214;DHT22;5664;48.606;13.456;2022-11-20T16:35:29;22.20;61.90
11214;DHT22;5664;48.606;13.456;2022-11-20T16:37:55;22.10;61.90
11214;DHT22;5664;48.606;13.456;2022-11-20T16:40:20;22.10;62.00
11214;DHT22;5664;48.606;13.456;2022-11-20T16:42:46;22.10;62.10
11214;DHT22;5664;48.606;13.456;2022-11-20T16:45:11;22.10;62.20
11214;DHT22;5664;48.606;13.456;2022-11-20T16:47:37;22.10;62.30
11214;DHT22;5664;48.606;13.456;2022-11-20T16:50:02;22.10;62.30
11214;DHT22;5664;48.606;13.456;2022-11-20T16:52:28;22.10;62.40